sensor_id;sensor_type;location;lat;lon;timestamp;P1;durP1;ratioP1;P2;durP2;ratioP2
40635;SDS011;26642;55.766;37.828;2023-02-28T00:00:25;4.18;;;2.40;;
40635;SDS011;26642;55.766;37.828;2023-02-28T00:02:51;2.70;;;2.50;;
40635;SDS011;26642;55.766;37.828;2023-02-28T00:05:18;3.33;;;2.25;;
40635;SDS011;26642;55.766;37.828;2023-02-28T00:07:47;2.58;;;2.17;;
40635;SDS011;26642;55.766;37.828;2023-02-28T00:10:16;3.60;;;2.65;;
40635;SDS011;26642;55.766;37.828;2023-02-28T00:12:49;3.33;;;2.22;;
40635;SDS011;26642;55.766;37.828;2023-02-28T00:15:16;2.70;;;2.25;;
40635;SDS011;26642;55.766;37.828;2023-02-28T00:17:43;2.30;;;2.10;;
40635;SDS011;26642;55.766;37.828;2023-02-28T00:20:10;3.20;;;2.40;;
40635;SDS011;26642;55.766;37.828;2023-02-28T00:22:41;3.65;;;2.63;;
40635;SDS011;26642;55.766;37.828;2023-02-28T00:25:08;2.70;;;2.25;;
40635;SDS011;26642;55.766;37.828;2023-02-28T00:27:36;2.78;;;2.22;;
40635;SDS011;26642;55.766;37.828;2023-02-28T00:30:03;2.90;;;2.10;;
40635;SDS011;26642;55.766;37.828;2023-02-28T00:32:31;4.13;;;2.20;;
40635;SDS011;26642;55.766;37.828;2023-02-28T00:34:57;4.07;;;2.25;;
40635;SDS011;26642;55.766;37.828;2023-02-28T00:37:23;2.47;;;2.08;;
40635;SDS011;26642;55.766;37.828;2023-02-28T00:39:49;2.58;;;2.15;;
40635;SDS011;26642;55.766;37.828;2023-02-28T00:42:15;3.75;;;2.33;;
40635;SDS011;26642;55.766;37.828;2023-02-28T00:44:40;3.30;;;2.40;;
40635;SDS011;26642;55.766;37.828;2023-02-28T00:47:06;2.40;;;2.20;;
40635;SDS011;26642;55.766;37.828;2023-02-28T00:49:32;2.83;;;1.90;;
40635;SDS011;26642;55.766;37.828;2023-02-28T00:51:58;3.35;;;2.30;;
40635;SDS011;26642;55.766;37.828;2023-02-28T00:54:25;3.28;;;2.42;;
40635;SDS011;26642;55.766;37.828;2023-02-28T00:56:51;2.90;;;2.42;;
40635;SDS011;26642;55.766;37.828;2023-02-28T00:59:17;2.53;;;2.17;;
40635;SDS011;26642;55.766;37.828;2023-02-28T01:01:44;4.00;;;2.47;;
40635;SDS011;26642;55.766;37.828;2023-02-28T01:04:11;2.72;;;2.33;;
40635;SDS011;26642;55.766;37.828;2023-02-28T01:06:38;2.45;;;2.15;;
40635;SDS011;26642;55.766;37.828;2023-02-28T01:09:05;2.78;;;2.38;;
40635;SDS011;26642;55.766;37.828;2023-02-28T01:11:32;2.78;;;2.33;;
40635;SDS011;26642;55.766;37.828;2023-02-28T01:13:59;2.20;;;2.00;;
40635;SDS011;26642;55.766;37.828;2023-02-28T01:16:25;3.40;;;2.53;;
40635;SDS011;26642;55.766;37.828;2023-02-28T01:18:52;3.28;;;2.30;;
40635;SDS011;26642;55.766;37.828;2023-02-28T01:21:18;2.40;;;2.17;;
40635;SDS011;26642;55.766;37.828;2023-02-28T01:23:46;2.63;;;2.30;;
40635;SDS011;26642;55.766;37.828;2023-02-28T01:28:43;2.97;;;2.42;;
40635;SDS011;26642;55.766;37.828;2023-02-28T01:31:09;2.83;;;2.40;;
40635;SDS011;26642;55.766;37.828;2023-02-28T01:33:37;4.45;;;2.40;;
40635;SDS011;26642;55.766;37.828;2023-02-28T01:36:07;5.30;;;2.33;;
40635;SDS011;26642;55.766;37.828;2023-02-28T01:38:36;3.05;;;2.15;;
40635;SDS011;26642;55.766;37.828;2023-02-28T01:41:02;2.97;;;2.25;;
40635;SDS011;26642;55.766;37.828;2023-02-28T01:43:30;2.67;;;2.35;;
40635;SDS011;26642;55.766;37.828;2023-02-28T01:46:17;4.30;;;2.55;;
40635;SDS011;26642;55.766;37.828;2023-02-28T01:48:48;2.72;;;2.00;;
40635;SDS011;26642;55.766;37.828;2023-02-28T01:51:32;2.78;;;1.92;;
40635;SDS011;26642;55.766;37.828;2023-02-28T01:54:01;2.83;;;2.10;;
40635;SDS011;26642;55.766;37.828;2023-02-28T01:56:32;2.95;;;2.30;;
40635;SDS011;26642;55.766;37.828;2023-02-28T01:59:03;2.65;;;2.40;;
40635;SDS011;26642;55.766;37.828;2023-02-28T02:01:29;2.55;;;2.05;;
40635;SDS011;26642;55.766;37.828;2023-02-28T02:03:58;2.03;;;1.90;;
40635;SDS011;26642;55.766;37.828;2023-02-28T02:06:37;2.85;;;2.17;;
40635;SDS011;26642;55.766;37.828;2023-02-28T02:09:09;2.45;;;2.03;;
40635;SDS011;26642;55.766;37.828;2023-02-28T02:11:36;3.35;;;2.38;;
40635;SDS011;26642;55.766;37.828;2023-02-28T02:14:27;2.60;;;2.15;;
40635;SDS011;26642;55.766;37.828;2023-02-28T02:17:18;2.72;;;2.28;;
40635;SDS011;26642;55.766;37.828;2023-02-28T02:28:22;2.40;;;2.20;;
40635;SDS011;26642;55.766;37.828;2023-02-28T02:40:23;2.35;;;2.15;;
40635;SDS011;26642;55.766;37.828;2023-02-28T02:45:45;2.42;;;2.05;;
40635;SDS011;26642;55.766;37.828;2023-02-28T02:48:21;2.25;;;2.05;;
40635;SDS011;26642;55.766;37.828;2023-02-28T02:50:59;2.53;;;1.95;;
40635;SDS011;26642;55.766;37.828;2023-02-28T02:53:36;3.33;;;2.40;;
40635;SDS011;26642;55.766;37.828;2023-02-28T02:56:10;2.88;;;2.50;;
40635;SDS011;26642;55.766;37.828;2023-02-28T02:58:40;2.38;;;2.17;;
40635;SDS011;26642;55.766;37.828;2023-02-28T03:01:10;3.10;;;2.20;;
40635;SDS011;26642;55.766;37.828;2023-02-28T03:03:41;3.38;;;2.92;;
40635;SDS011;26642;55.766;37.828;2023-02-28T03:06:08;2.80;;;2.13;;
40635;SDS011;26642;55.766;37.828;2023-02-28T03:08:36;2.78;;;2.22;;
40635;SDS011;26642;55.766;37.828;2023-02-28T03:11:07;3.28;;;2.53;;
40635;SDS011;26642;55.766;37.828;2023-02-28T03:28:26;2.58;;;2.38;;
40635;SDS011;26642;55.766;37.828;2023-02-28T03:30:58;2.22;;;1.92;;
40635;SDS011;26642;55.766;37.828;2023-02-28T03:33:30;2.67;;;2.25;;
40635;SDS011;26642;55.766;37.828;2023-02-28T03:36:04;2.65;;;2.45;;
40635;SDS011;26642;55.766;37.828;2023-02-28T03:38:37;3.65;;;2.65;;
40635;SDS011;26642;55.766;37.828;2023-02-28T03:41:14;2.42;;;2.22;;
40635;SDS011;26642;55.766;37.828;2023-02-28T03:43:56;2.77;;;2.20;;
40635;SDS011;26642;55.766;37.828;2023-02-28T03:46:30;2.42;;;1.95;;
40635;SDS011;26642;55.766;37.828;2023-02-28T03:49:02;4.22;;;2.42;;
40635;SDS011;26642;55.766;37.828;2023-02-28T03:51:34;2.40;;;2.20;;
40635;SDS011;26642;55.766;37.828;2023-02-28T03:54:07;2.53;;;2.33;;
40635;SDS011;26642;55.766;37.828;2023-02-28T03:56:38;2.20;;;2.00;;
40635;SDS011;26642;55.766;37.828;2023-02-28T03:59:15;3.10;;;2.30;;
40635;SDS011;26642;55.766;37.828;2023-02-28T04:01:51;2.92;;;2.15;;
40635;SDS011;26642;55.766;37.828;2023-02-28T04:04:17;3.28;;;2.20;;
40635;SDS011;26642;55.766;37.828;2023-02-28T04:06:43;2.78;;;2.13;;
40635;SDS011;26642;55.766;37.828;2023-02-28T04:09:11;2.42;;;2.00;;
40635;SDS011;26642;55.766;37.828;2023-02-28T04:11:40;3.40;;;2.08;;
40635;SDS011;26642;55.766;37.828;2023-02-28T04:14:11;2.85;;;2.13;;
40635;SDS011;26642;55.766;37.828;2023-02-28T04:16:38;2.40;;;2.20;;
40635;SDS011;26642;55.766;37.828;2023-02-28T04:19:06;5.00;;;1.80;;
40635;SDS011;26642;55.766;37.828;2023-02-28T04:21:44;3.22;;;2.13;;
40635;SDS011;26642;55.766;37.828;2023-02-28T04:24:21;2.38;;;2.17;;
40635;SDS011;26642;55.766;37.828;2023-02-28T04:26:52;2.35;;;1.90;;
40635;SDS011;26642;55.766;37.828;2023-02-28T04:29:21;3.78;;;2.05;;
40635;SDS011;26642;55.766;37.828;2023-02-28T04:31:49;2.60;;;2.00;;
40635;SDS011;26642;55.766;37.828;2023-02-28T04:34:15;2.65;;;2.13;;
40635;SDS011;26642;55.766;37.828;2023-02-28T04:36:40;2.22;;;1.90;;
40635;SDS011;26642;55.766;37.828;2023-02-28T04:39:06;2.47;;;1.75;;
40635;SDS011;26642;55.766;37.828;2023-02-28T04:41:33;3.13;;;1.90;;
40635;SDS011;26642;55.766;37.828;2023-02-28T04:43:58;3.40;;;2.20;;
40635;SDS011;26642;55.766;37.828;2023-02-28T04:46:24;2.22;;;1.90;;
40635;SDS011;26642;55.766;37.828;2023-02-28T04:48:50;3.10;;;2.00;;
40635;SDS011;26642;55.766;37.828;2023-02-28T04:51:17;3.35;;;2.35;;
40635;SDS011;26642;55.766;37.828;2023-02-28T04:53:44;3.35;;;1.95;;
40635;SDS011;26642;55.766;37.828;2023-02-28T04:56:11;3.55;;;2.05;;
40635;SDS011;26642;55.766;37.828;2023-02-28T04:58:39;3.50;;;2.20;;
40635;SDS011;26642;55.766;37.828;2023-02-28T05:01:06;2.95;;;2.20;;
40635;SDS011;26642;55.766;37.828;2023-02-28T05:03:42;3.90;;;2.08;;
40635;SDS011;26642;55.766;37.828;2023-02-28T05:06:09;7.38;;;2.25;;
40635;SDS011;26642;55.766;37.828;2023-02-28T05:08:36;3.65;;;2.20;;
40635;SDS011;26642;55.766;37.828;2023-02-28T05:11:02;5.75;;;2.20;;
40635;SDS011;26642;55.766;37.828;2023-02-28T05:13:29;3.05;;;2.20;;
40635;SDS011;26642;55.766;37.828;2023-02-28T05:15:55;2.53;;;1.90;;
40635;SDS011;26642;55.766;37.828;2023-02-28T05:18:21;4.15;;;2.47;;
40635;SDS011;26642;55.766;37.828;2023-02-28T05:20:47;4.72;;;2.47;;
40635;SDS011;26642;55.766;37.828;2023-02-28T05:23:13;2.85;;;2.15;;
40635;SDS011;26642;55.766;37.828;2023-02-28T05:25:41;5.38;;;2.80;;
40635;SDS011;26642;55.766;37.828;2023-02-28T05:28:07;4.13;;;2.40;;
40635;SDS011;26642;55.766;37.828;2023-02-28T05:30:33;5.05;;;2.63;;
40635;SDS011;26642;55.766;37.828;2023-02-28T05:32:59;6.35;;;3.17;;
40635;SDS011;26642;55.766;37.828;2023-02-28T05:35:25;5.00;;;3.10;;
40635;SDS011;26642;55.766;37.828;2023-02-28T05:37:51;4.10;;;3.35;;
40635;SDS011;26642;55.766;37.828;2023-02-28T05:40:17;3.85;;;3.30;;
40635;SDS011;26642;55.766;37.828;2023-02-28T05:42:45;4.38;;;3.08;;
40635;SDS011;26642;55.766;37.828;2023-02-28T05:45:11;4.28;;;3.30;;
40635;SDS011;26642;55.766;37.828;2023-02-28T05:47:38;4.65;;;3.35;;
40635;SDS011;26642;55.766;37.828;2023-02-28T05:50:04;5.65;;;3.35;;
40635;SDS011;26642;55.766;37.828;2023-02-28T05:52:31;4.85;;;3.10;;
40635;SDS011;26642;55.766;37.828;2023-02-28T05:54:57;3.58;;;2.90;;
40635;SDS011;26642;55.766;37.828;2023-02-28T05:57:23;4.30;;;3.10;;
40635;SDS011;26642;55.766;37.828;2023-02-28T05:59:49;3.67;;;3.15;;
40635;SDS011;26642;55.766;37.828;2023-02-28T06:02:16;3.70;;;2.90;;
40635;SDS011;26642;55.766;37.828;2023-02-28T06:04:43;6.38;;;3.17;;
40635;SDS011;26642;55.766;37.828;2023-02-28T06:07:09;3.85;;;3.00;;
40635;SDS011;26642;55.766;37.828;2023-02-28T06:09:35;5.03;;;3.13;;
40635;SDS011;26642;55.766;37.828;2023-02-28T06:12:02;3.88;;;2.65;;
40635;SDS011;26642;55.766;37.828;2023-02-28T06:14:31;6.82;;;3.28;;
40635;SDS011;26642;55.766;37.828;2023-02-28T06:16:58;4.65;;;3.42;;
40635;SDS011;26642;55.766;37.828;2023-02-28T06:19:25;6.43;;;3.75;;
40635;SDS011;26642;55.766;37.828;2023-02-28T06:21:52;4.57;;;2.83;;
40635;SDS011;26642;55.766;37.828;2023-02-28T06:24:22;4.15;;;2.92;;
40635;SDS011;26642;55.766;37.828;2023-02-28T06:26:49;3.85;;;2.97;;
40635;SDS011;26642;55.766;37.828;2023-02-28T06:29:15;5.53;;;3.13;;
40635;SDS011;26642;55.766;37.828;2023-02-28T06:31:44;4.35;;;2.83;;
40635;SDS011;26642;55.766;37.828;2023-02-28T06:34:11;3.35;;;2.30;;
40635;SDS011;26642;55.766;37.828;2023-02-28T06:36:38;5.28;;;2.78;;
40635;SDS011;26642;55.766;37.828;2023-02-28T06:39:04;4.30;;;3.08;;
40635;SDS011;26642;55.766;37.828;2023-02-28T06:41:31;3.85;;;2.67;;
40635;SDS011;26642;55.766;37.828;2023-02-28T06:44:03;3.70;;;2.65;;
40635;SDS011;26642;55.766;37.828;2023-02-28T06:46:43;4.78;;;3.40;;
40635;SDS011;26642;55.766;37.828;2023-02-28T06:49:10;4.05;;;2.65;;
40635;SDS011;26642;55.766;37.828;2023-02-28T06:51:37;3.45;;;2.55;;
40635;SDS011;26642;55.766;37.828;2023-02-28T06:54:07;4.18;;;2.50;;
40635;SDS011;26642;55.766;37.828;2023-02-28T06:56:36;3.58;;;2.03;;
40635;SDS011;26642;55.766;37.828;2023-02-28T06:59:02;3.15;;;2.30;;
40635;SDS011;26642;55.766;37.828;2023-02-28T07:01:29;3.17;;;2.47;;
40635;SDS011;26642;55.766;37.828;2023-02-28T07:03:58;3.13;;;2.38;;
40635;SDS011;26642;55.766;37.828;2023-02-28T07:06:25;3.00;;;2.17;;
40635;SDS011;26642;55.766;37.828;2023-02-28T07:08:52;4.05;;;2.45;;
40635;SDS011;26642;55.766;37.828;2023-02-28T07:11:22;7.53;;;2.45;;
40635;SDS011;26642;55.766;37.828;2023-02-28T07:13:51;7.43;;;3.15;;
40635;SDS011;26642;55.766;37.828;2023-02-28T07:16:18;6.20;;;2.40;;
40635;SDS011;26642;55.766;37.828;2023-02-28T07:18:44;9.00;;;3.25;;
40635;SDS011;26642;55.766;37.828;2023-02-28T07:21:10;7.13;;;2.80;;
40635;SDS011;26642;55.766;37.828;2023-02-28T07:23:37;4.88;;;2.63;;
40635;SDS011;26642;55.766;37.828;2023-02-28T07:26:04;6.53;;;2.97;;
40635;SDS011;26642;55.766;37.828;2023-02-28T07:28:30;4.07;;;2.40;;
40635;SDS011;26642;55.766;37.828;2023-02-28T07:30:56;5.72;;;2.97;;
40635;SDS011;26642;55.766;37.828;2023-02-28T07:33:22;7.38;;;2.83;;
40635;SDS011;26642;55.766;37.828;2023-02-28T07:35:49;6.97;;;2.60;;
40635;SDS011;26642;55.766;37.828;2023-02-28T07:38:15;6.90;;;2.90;;
40635;SDS011;26642;55.766;37.828;2023-02-28T07:40:41;5.47;;;2.65;;
40635;SDS011;26642;55.766;37.828;2023-02-28T07:43:07;7.03;;;2.78;;
40635;SDS011;26642;55.766;37.828;2023-02-28T07:45:33;8.02;;;2.78;;
40635;SDS011;26642;55.766;37.828;2023-02-28T07:47:59;9.40;;;3.08;;
40635;SDS011;26642;55.766;37.828;2023-02-28T07:50:26;5.85;;;2.83;;
40635;SDS011;26642;55.766;37.828;2023-02-28T07:52:57;4.22;;;2.88;;
40635;SDS011;26642;55.766;37.828;2023-02-28T07:55:23;7.25;;;2.90;;
40635;SDS011;26642;55.766;37.828;2023-02-28T07:57:49;4.90;;;2.50;;
40635;SDS011;26642;55.766;37.828;2023-02-28T08:00:15;7.47;;;2.95;;
40635;SDS011;26642;55.766;37.828;2023-02-28T08:02:41;3.28;;;2.58;;
40635;SDS011;26642;55.766;37.828;2023-02-28T08:05:07;7.10;;;2.67;;
40635;SDS011;26642;55.766;37.828;2023-02-28T08:07:34;5.63;;;2.60;;
40635;SDS011;26642;55.766;37.828;2023-02-28T08:09:59;4.72;;;2.40;;
40635;SDS011;26642;55.766;37.828;2023-02-28T08:12:26;7.18;;;2.92;;
40635;SDS011;26642;55.766;37.828;2023-02-28T08:14:52;5.82;;;2.80;;
40635;SDS011;26642;55.766;37.828;2023-02-28T08:17:18;4.97;;;2.50;;
40635;SDS011;26642;55.766;37.828;2023-02-28T08:19:46;4.85;;;2.33;;
40635;SDS011;26642;55.766;37.828;2023-02-28T08:22:12;3.47;;;2.30;;
40635;SDS011;26642;55.766;37.828;2023-02-28T08:24:39;3.85;;;2.75;;
40635;SDS011;26642;55.766;37.828;2023-02-28T08:27:07;5.47;;;2.45;;
40635;SDS011;26642;55.766;37.828;2023-02-28T08:29:34;3.78;;;2.30;;
40635;SDS011;26642;55.766;37.828;2023-02-28T08:32:02;4.82;;;2.65;;
40635;SDS011;26642;55.766;37.828;2023-02-28T08:34:29;4.28;;;2.53;;
40635;SDS011;26642;55.766;37.828;2023-02-28T08:36:54;4.82;;;2.90;;
40635;SDS011;26642;55.766;37.828;2023-02-28T08:39:20;3.63;;;2.38;;
40635;SDS011;26642;55.766;37.828;2023-02-28T08:41:46;7.30;;;2.70;;
40635;SDS011;26642;55.766;37.828;2023-02-28T08:44:12;4.13;;;2.70;;
40635;SDS011;26642;55.766;37.828;2023-02-28T08:46:38;6.38;;;2.90;;
40635;SDS011;26642;55.766;37.828;2023-02-28T08:49:04;3.85;;;2.72;;
40635;SDS011;26642;55.766;37.828;2023-02-28T08:51:30;4.57;;;2.90;;
40635;SDS011;26642;55.766;37.828;2023-02-28T08:53:58;4.50;;;2.50;;
40635;SDS011;26642;55.766;37.828;2023-02-28T08:56:25;4.28;;;2.50;;
40635;SDS011;26642;55.766;37.828;2023-02-28T08:58:53;2.50;;;2.05;;
40635;SDS011;26642;55.766;37.828;2023-02-28T09:01:21;3.17;;;2.38;;
40635;SDS011;26642;55.766;37.828;2023-02-28T09:03:52;2.33;;;2.00;;
40635;SDS011;26642;55.766;37.828;2023-02-28T09:06:20;4.65;;;2.20;;
40635;SDS011;26642;55.766;37.828;2023-02-28T09:08:48;3.65;;;2.13;;
40635;SDS011;26642;55.766;37.828;2023-02-28T09:11:15;3.67;;;2.10;;
40635;SDS011;26642;55.766;37.828;2023-02-28T09:13:41;3.58;;;2.08;;
40635;SDS011;26642;55.766;37.828;2023-02-28T09:16:09;4.70;;;2.10;;
40635;SDS011;26642;55.766;37.828;2023-02-28T09:18:37;2.85;;;2.03;;
40635;SDS011;26642;55.766;37.828;2023-02-28T09:21:07;7.00;;;2.25;;
40635;SDS011;26642;55.766;37.828;2023-02-28T09:23:34;3.80;;;1.95;;
40635;SDS011;26642;55.766;37.828;2023-02-28T09:26:03;2.42;;;1.95;;
40635;SDS011;26642;55.766;37.828;2023-02-28T09:28:29;3.67;;;1.98;;
40635;SDS011;26642;55.766;37.828;2023-02-28T09:30:55;3.88;;;2.10;;
40635;SDS011;26642;55.766;37.828;2023-02-28T09:33:22;3.15;;;2.40;;
40635;SDS011;26642;55.766;37.828;2023-02-28T09:35:49;6.10;;;2.20;;
40635;SDS011;26642;55.766;37.828;2023-02-28T09:38:15;3.13;;;2.08;;
40635;SDS011;26642;55.766;37.828;2023-02-28T09:40:49;4.78;;;2.67;;
40635;SDS011;26642;55.766;37.828;2023-02-28T09:45:48;4.65;;;2.42;;
40635;SDS011;26642;55.766;37.828;2023-02-28T09:48:35;3.75;;;2.20;;
40635;SDS011;26642;55.766;37.828;2023-02-28T09:51:05;3.13;;;2.05;;
40635;SDS011;26642;55.766;37.828;2023-02-28T09:53:52;3.00;;;1.98;;
40635;SDS011;26642;55.766;37.828;2023-02-28T09:56:36;3.35;;;2.20;;
40635;SDS011;26642;55.766;37.828;2023-02-28T09:59:09;5.30;;;1.67;;
40635;SDS011;26642;55.766;37.828;2023-02-28T10:05:11;2.78;;;1.67;;
40635;SDS011;26642;55.766;37.828;2023-02-28T10:10:42;2.65;;;2.08;;
40635;SDS011;26642;55.766;37.828;2023-02-28T10:17:02;3.10;;;1.83;;
40635;SDS011;26642;55.766;37.828;2023-02-28T10:19:30;2.55;;;1.75;;
40635;SDS011;26642;55.766;37.828;2023-02-28T10:22:11;3.20;;;2.03;;
40635;SDS011;26642;55.766;37.828;2023-02-28T10:24:47;2.85;;;1.85;;
40635;SDS011;26642;55.766;37.828;2023-02-28T10:27:20;2.05;;;1.73;;
40635;SDS011;26642;55.766;37.828;2023-02-28T10:29:52;3.53;;;1.83;;
40635;SDS011;26642;55.766;37.828;2023-02-28T10:32:34;2.05;;;1.67;;
40635;SDS011;26642;55.766;37.828;2023-02-28T10:37:45;2.55;;;1.98;;
40635;SDS011;26642;55.766;37.828;2023-02-28T10:42:54;2.88;;;1.92;;
40635;SDS011;26642;55.766;37.828;2023-02-28T10:45:24;3.22;;;1.75;;
40635;SDS011;26642;55.766;37.828;2023-02-28T10:50:42;1.77;;;1.58;;
40635;SDS011;26642;55.766;37.828;2023-02-28T10:58:29;3.20;;;1.75;;
40635;SDS011;26642;55.766;37.828;2023-02-28T11:01:10;3.63;;;1.90;;
40635;SDS011;26642;55.766;37.828;2023-02-28T11:03:42;1.95;;;1.60;;
40635;SDS011;26642;55.766;37.828;2023-02-28T11:06:13;2.13;;;1.73;;
40635;SDS011;26642;55.766;37.828;2023-02-28T11:08:44;2.83;;;1.88;;
40635;SDS011;26642;55.766;37.828;2023-02-28T11:11:16;4.05;;;1.90;;
40635;SDS011;26642;55.766;37.828;2023-02-28T11:13:43;16.33;;;2.08;;
40635;SDS011;26642;55.766;37.828;2023-02-28T11:16:12;4.05;;;2.47;;
40635;SDS011;26642;55.766;37.828;2023-02-28T11:18:52;3.83;;;1.75;;
40635;SDS011;26642;55.766;37.828;2023-02-28T11:21:24;2.42;;;2.10;;
40635;SDS011;26642;55.766;37.828;2023-02-28T11:23:56;3.50;;;1.90;;
40635;SDS011;26642;55.766;37.828;2023-02-28T11:29:24;3.58;;;2.35;;
40635;SDS011;26642;55.766;37.828;2023-02-28T11:34:36;2.40;;;2.03;;
40635;SDS011;26642;55.766;37.828;2023-02-28T11:37:03;3.15;;;2.15;;
40635;SDS011;26642;55.766;37.828;2023-02-28T11:39:32;2.35;;;1.80;;
40635;SDS011;26642;55.766;37.828;2023-02-28T11:56:19;2.83;;;2.13;;
40635;SDS011;26642;55.766;37.828;2023-02-28T12:01:57;2.38;;;2.00;;
40635;SDS011;26642;55.766;37.828;2023-02-28T12:05:18;3.25;;;2.10;;
40635;SDS011;26642;55.766;37.828;2023-02-28T12:13:46;2.95;;;2.00;;
40635;SDS011;26642;55.766;37.828;2023-02-28T12:19:03;2.78;;;1.90;;
40635;SDS011;26642;55.766;37.828;2023-02-28T12:24:55;2.70;;;2.20;;
40635;SDS011;26642;55.766;37.828;2023-02-28T12:27:44;2.15;;;1.90;;
40635;SDS011;26642;55.766;37.828;2023-02-28T12:32:44;2.22;;;1.83;;
40635;SDS011;26642;55.766;37.828;2023-02-28T12:41:15;3.80;;;2.10;;
40635;SDS011;26642;55.766;37.828;2023-02-28T12:43:51;2.92;;;1.88;;
40635;SDS011;26642;55.766;37.828;2023-02-28T12:46:29;3.03;;;1.70;;
40635;SDS011;26642;55.766;37.828;2023-02-28T12:49:28;3.40;;;1.80;;
40635;SDS011;26642;55.766;37.828;2023-02-28T12:52:04;1.83;;;1.60;;
40635;SDS011;26642;55.766;37.828;2023-02-28T13:00:03;1.95;;;1.70;;
40635;SDS011;26642;55.766;37.828;2023-02-28T13:05:29;1.95;;;1.65;;
40635;SDS011;26642;55.766;37.828;2023-02-28T13:08:27;2.47;;;1.77;;
40635;SDS011;26642;55.766;37.828;2023-02-28T13:11:25;3.00;;;2.10;;
40635;SDS011;26642;55.766;37.828;2023-02-28T13:14:20;3.00;;;2.03;;
40635;SDS011;26642;55.766;37.828;2023-02-28T13:19:37;3.47;;;2.17;;
40635;SDS011;26642;55.766;37.828;2023-02-28T13:22:17;1.92;;;1.60;;
40635;SDS011;26642;55.766;37.828;2023-02-28T13:24:50;3.03;;;1.83;;
40635;SDS011;26642;55.766;37.828;2023-02-28T13:29:57;3.58;;;2.05;;
40635;SDS011;26642;55.766;37.828;2023-02-28T13:39:50;3.17;;;2.05;;
40635;SDS011;26642;55.766;37.828;2023-02-28T13:47:33;2.00;;;1.70;;
40635;SDS011;26642;55.766;37.828;2023-02-28T13:55:57;2.00;;;1.45;;
40635;SDS011;26642;55.766;37.828;2023-02-28T13:58:41;2.50;;;1.83;;
40635;SDS011;26642;55.766;37.828;2023-02-28T14:01:51;2.05;;;1.52;;
40635;SDS011;26642;55.766;37.828;2023-02-28T14:06:55;2.20;;;1.90;;
40635;SDS011;26642;55.766;37.828;2023-02-28T14:09:25;2.13;;;1.67;;
40635;SDS011;26642;55.766;37.828;2023-02-28T14:11:52;2.35;;;1.73;;
40635;SDS011;26642;55.766;37.828;2023-02-28T14:15:23;3.53;;;2.13;;
40635;SDS011;26642;55.766;37.828;2023-02-28T14:17:14;1.92;;;1.80;;
40635;SDS011;26642;55.766;37.828;2023-02-28T14:19:44;3.97;;;1.90;;
40635;SDS011;26642;55.766;37.828;2023-02-28T14:24:52;2.67;;;1.98;;
40635;SDS011;26642;55.766;37.828;2023-02-28T14:35:45;3.72;;;1.92;;
40635;SDS011;26642;55.766;37.828;2023-02-28T14:38:30;1.55;;;1.35;;
40635;SDS011;26642;55.766;37.828;2023-02-28T14:41:03;3.60;;;2.17;;
40635;SDS011;26642;55.766;37.828;2023-02-28T14:43:47;2.88;;;1.90;;
40635;SDS011;26642;55.766;37.828;2023-02-28T14:46:14;4.88;;;1.73;;
40635;SDS011;26642;55.766;37.828;2023-02-28T14:48:44;3.42;;;1.92;;
40635;SDS011;26642;55.766;37.828;2023-02-28T14:51:11;2.72;;;1.85;;
40635;SDS011;26642;55.766;37.828;2023-02-28T14:53:44;4.47;;;2.15;;
40635;SDS011;26642;55.766;37.828;2023-02-28T14:56:27;2.13;;;1.88;;
40635;SDS011;26642;55.766;37.828;2023-02-28T14:58:59;3.63;;;1.80;;
40635;SDS011;26642;55.766;37.828;2023-02-28T15:01:26;3.28;;;2.25;;
40635;SDS011;26642;55.766;37.828;2023-02-28T15:03:59;2.58;;;2.20;;
40635;SDS011;26642;55.766;37.828;2023-02-28T15:06:28;3.08;;;1.83;;
40635;SDS011;26642;55.766;37.828;2023-02-28T15:09:08;2.97;;;1.58;;
40635;SDS011;26642;55.766;37.828;2023-02-28T15:11:41;2.05;;;1.73;;
40635;SDS011;26642;55.766;37.828;2023-02-28T15:14:19;2.67;;;1.70;;
40635;SDS011;26642;55.766;37.828;2023-02-28T15:16:48;2.27;;;1.30;;
40635;SDS011;26642;55.766;37.828;2023-02-28T15:19:28;4.82;;;1.67;;
40635;SDS011;26642;55.766;37.828;2023-02-28T15:21:59;2.75;;;1.40;;
40635;SDS011;26642;55.766;37.828;2023-02-28T15:24:46;2.15;;;1.50;;
40635;SDS011;26642;55.766;37.828;2023-02-28T15:27:19;1.35;;;1.13;;
40635;SDS011;26642;55.766;37.828;2023-02-28T15:29:48;1.85;;;1.30;;
40635;SDS011;26642;55.766;37.828;2023-02-28T15:32:29;2.33;;;1.40;;
40635;SDS011;26642;55.766;37.828;2023-02-28T15:34:57;1.40;;;1.30;;
40635;SDS011;26642;55.766;37.828;2023-02-28T15:37:44;4.13;;;1.60;;
40635;SDS011;26642;55.766;37.828;2023-02-28T15:40:28;3.25;;;1.55;;
40635;SDS011;26642;55.766;37.828;2023-02-28T15:48:21;2.25;;;1.65;;
40635;SDS011;26642;55.766;37.828;2023-02-28T15:50:57;6.45;;;2.05;;
40635;SDS011;26642;55.766;37.828;2023-02-28T15:53:28;2.17;;;1.50;;
40635;SDS011;26642;55.766;37.828;2023-02-28T15:55:59;1.70;;;1.60;;
40635;SDS011;26642;55.766;37.828;2023-02-28T15:58:27;1.48;;;1.25;;
40635;SDS011;26642;55.766;37.828;2023-02-28T16:01:01;2.75;;;1.50;;
40635;SDS011;26642;55.766;37.828;2023-02-28T16:03:38;2.67;;;1.83;;
40635;SDS011;26642;55.766;37.828;2023-02-28T16:06:24;2.70;;;1.75;;
40635;SDS011;26642;55.766;37.828;2023-02-28T16:08:54;2.75;;;1.65;;
40635;SDS011;26642;55.766;37.828;2023-02-28T16:11:20;1.48;;;1.38;;
40635;SDS011;26642;55.766;37.828;2023-02-28T16:13:47;2.42;;;1.40;;
40635;SDS011;26642;55.766;37.828;2023-02-28T16:16:18;1.50;;;1.40;;
40635;SDS011;26642;55.766;37.828;2023-02-28T16:18:49;2.50;;;1.50;;
40635;SDS011;26642;55.766;37.828;2023-02-28T16:21:16;1.70;;;1.48;;
40635;SDS011;26642;55.766;37.828;2023-02-28T16:23:42;1.63;;;1.42;;
40635;SDS011;26642;55.766;37.828;2023-02-28T16:26:09;1.52;;;1.33;;
40635;SDS011;26642;55.766;37.828;2023-02-28T16:28:44;2.05;;;1.30;;
40635;SDS011;26642;55.766;37.828;2023-02-28T16:31:10;2.30;;;1.67;;
40635;SDS011;26642;55.766;37.828;2023-02-28T16:33:41;2.38;;;1.42;;
40635;SDS011;26642;55.766;37.828;2023-02-28T16:36:12;2.30;;;1.73;;
40635;SDS011;26642;55.766;37.828;2023-02-28T16:38:39;1.42;;;1.23;;
40635;SDS011;26642;55.766;37.828;2023-02-28T16:41:05;1.33;;;1.15;;
40635;SDS011;26642;55.766;37.828;2023-02-28T16:43:31;2.25;;;1.42;;
40635;SDS011;26642;55.766;37.828;2023-02-28T16:45:58;1.65;;;1.52;;
40635;SDS011;26642;55.766;37.828;2023-02-28T16:48:24;1.70;;;1.60;;
40635;SDS011;26642;55.766;37.828;2023-02-28T16:50:50;2.58;;;1.40;;
40635;SDS011;26642;55.766;37.828;2023-02-28T16:53:17;1.48;;;1.30;;
40635;SDS011;26642;55.766;37.828;2023-02-28T16:55:43;2.72;;;1.50;;
40635;SDS011;26642;55.766;37.828;2023-02-28T16:58:13;2.45;;;1.50;;
40635;SDS011;26642;55.766;37.828;2023-02-28T17:00:40;1.30;;;1.20;;
40635;SDS011;26642;55.766;37.828;2023-02-28T17:03:19;1.50;;;1.40;;
40635;SDS011;26642;55.766;37.828;2023-02-28T17:05:49;1.30;;;1.00;;
40635;SDS011;26642;55.766;37.828;2023-02-28T17:08:15;1.90;;;1.40;;
40635;SDS011;26642;55.766;37.828;2023-02-28T17:10:41;2.58;;;1.27;;
40635;SDS011;26642;55.766;37.828;2023-02-28T17:13:07;1.83;;;1.35;;
40635;SDS011;26642;55.766;37.828;2023-02-28T17:15:34;3.75;;;1.80;;
40635;SDS011;26642;55.766;37.828;2023-02-28T17:18:01;2.53;;;1.80;;
40635;SDS011;26642;55.766;37.828;2023-02-28T17:20:28;4.43;;;2.22;;
40635;SDS011;26642;55.766;37.828;2023-02-28T17:22:54;3.78;;;1.80;;
40635;SDS011;26642;55.766;37.828;2023-02-28T17:25:21;2.63;;;1.92;;
40635;SDS011;26642;55.766;37.828;2023-02-28T17:27:49;3.08;;;2.03;;
40635;SDS011;26642;55.766;37.828;2023-02-28T17:30:18;2.47;;;1.70;;